sensor_id;sensor_type;location;lat;lon;timestamp;temperature;humidity
73121;DHT22;61307;49.628;-1.624;2023-11-22T00:01:53;18.70;49.30
73121;DHT22;61307;49.628;-1.624;2023-11-22T00:04:20;18.70;49.40
73121;DHT22;61307;49.628;-1.624;2023-11-22T00:06:47;18.70;49.40
73121;DHT22;61307;49.628;-1.624;2023-11-22T00:09:15;18.70;50.00
73121;DHT22;61307;49.628;-1.624;2023-11-22T00:11:47;18.70;49.20
73121;DHT22;61307;49.628;-1.624;2023-11-22T00:14:14;18.70;49.20
73121;DHT22;61307;49.628;-1.624;2023-11-22T00:16:41;18.70;49.30
73121;DHT22;61307;49.628;-1.624;2023-11-22T00:19:08;18.70;49.30
73121;DHT22;61307;49.628;-1.624;2023-11-22T00:21:35;18.70;49.30
73121;DHT22;61307;49.628;-1.624;2023-11-22T00:24:02;18.60;49.20
73121;DHT22;61307;49.628;-1.624;2023-11-22T00:26:31;18.60;49.10
73121;DHT22;61307;49.628;-1.624;2023-11-22T00:28:58;18.60;49.10
73121;DHT22;61307;49.628;-1.624;2023-11-22T00:31:24;18.70;49.20
73121;DHT22;61307;49.628;-1.624;2023-11-22T00:33:51;18.60;49.10
73121;DHT22;61307;49.628;-1.624;2023-11-22T00:36:18;18.70;49.00
73121;DHT22;61307;49.628;-1.624;2023-11-22T00:38:45;18.60;48.90
73121;DHT22;61307;49.628;-1.624;2023-11-22T00:41:12;18.70;49.00
73121;DHT22;61307;49.628;-1.624;2023-11-22T00:43:41;18.60;48.90
73121;DHT22;61307;49.628;-1.624;2023-11-22T00:46:08;18.60;48.90
73121;DHT22;61307;49.628;-1.624;2023-11-22T00:48:34;18.60;48.90
73121;DHT22;61307;49.628;-1.624;2023-11-22T00:51:00;18.60;48.90
73121;DHT22;61307;49.628;-1.624;2023-11-22T00:53:34;18.60;48.90
73121;DHT22;61307;49.628;-1.624;2023-11-22T00:56:01;18.60;48.90
73121;DHT22;61307;49.628;-1.624;2023-11-22T00:58:28;18.60;48.90
73121;DHT22;61307;49.628;-1.624;2023-11-22T01:00:56;18.60;49.00
73121;DHT22;61307;49.628;-1.624;2023-11-22T01:03:23;18.60;49.00
73121;DHT22;61307;49.628;-1.624;2023-11-22T01:05:50;18.60;48.80
73121;DHT22;61307;49.628;-1.624;2023-11-22T01:08:17;18.60;48.80
73121;DHT22;61307;49.628;-1.624;2023-11-22T01:10:44;18.60;48.70
73121;DHT22;61307;49.628;-1.624;2023-11-22T01:13:11;18.60;48.80
73121;DHT22;61307;49.628;-1.624;2023-11-22T01:15:40;18.60;48.80
73121;DHT22;61307;49.628;-1.624;2023-11-22T01:18:08;18.50;48.70
73121;DHT22;61307;49.628;-1.624;2023-11-22T01:20:35;18.50;48.70
73121;DHT22;61307;49.628;-1.624;2023-11-22T01:23:02;18.50;48.70
73121;DHT22;61307;49.628;-1.624;2023-11-22T01:25:29;18.50;48.70
73121;DHT22;61307;49.628;-1.624;2023-11-22T01:27:55;18.50;48.70
73121;DHT22;61307;49.628;-1.624;2023-11-22T01:30:22;18.50;49.30
73121;DHT22;61307;49.628;-1.624;2023-11-22T01:32:49;18.50;48.70
73121;DHT22;61307;49.628;-1.624;2023-11-22T01:35:17;18.50;48.70
73121;DHT22;61307;49.628;-1.624;2023-11-22T01:37:44;18.50;48.70
73121;DHT22;61307;49.628;-1.624;2023-11-22T01:40:12;18.50;48.70
73121;DHT22;61307;49.628;-1.624;2023-11-22T01:42:38;18.50;49.30
73121;DHT22;61307;49.628;-1.624;2023-11-22T01:45:06;18.50;48.70
73121;DHT22;61307;49.628;-1.624;2023-11-22T01:47:35;18.50;48.70
73121;DHT22;61307;49.628;-1.624;2023-11-22T01:50:03;18.50;48.70
73121;DHT22;61307;49.628;-1.624;2023-11-22T01:52:32;18.50;48.70
73121;DHT22;61307;49.628;-1.624;2023-11-22T01:55:00;18.50;49.10
73121;DHT22;61307;49.628;-1.624;2023-11-22T01:57:30;18.50;48.70
73121;DHT22;61307;49.628;-1.624;2023-11-22T01:59:59;18.50;48.70
73121;DHT22;61307;49.628;-1.624;2023-11-22T02:02:26;18.50;48.70
73121;DHT22;61307;49.628;-1.624;2023-11-22T02:04:53;18.50;48.70
73121;DHT22;61307;49.628;-1.624;2023-11-22T02:07:20;18.50;48.70
73121;DHT22;61307;49.628;-1.624;2023-11-22T02:09:48;18.50;48.70
73121;DHT22;61307;49.628;-1.624;2023-11-22T02:12:15;18.50;48.70
73121;DHT22;61307;49.628;-1.624;2023-11-22T02:14:42;18.50;48.60
73121;DHT22;61307;49.628;-1.624;2023-11-22T02:17:09;18.50;48.70
73121;DHT22;61307;49.628;-1.624;2023-11-22T02:19:36;18.40;48.60
73121;DHT22;61307;49.628;-1.624;2023-11-22T02:22:03;18.40;48.60
73121;DHT22;61307;49.628;-1.624;2023-11-22T02:24:31;18.40;48.60
73121;DHT22;61307;49.628;-1.624;2023-11-22T02:26:59;18.40;48.60
73121;DHT22;61307;49.628;-1.624;2023-11-22T02:29:26;18.40;48.60
73121;DHT22;61307;49.628;-1.624;2023-11-22T02:31:54;18.40;48.60
73121;DHT22;61307;49.628;-1.624;2023-11-22T02:34:21;18.40;48.60
73121;DHT22;61307;49.628;-1.624;2023-11-22T02:36:48;18.40;48.60
73121;DHT22;61307;49.628;-1.624;2023-11-22T02:39:17;18.40;48.60
73121;DHT22;61307;49.628;-1.624;2023-11-22T02:41:45;18.40;48.60
73121;DHT22;61307;49.628;-1.624;2023-11-22T02:44:13;18.40;48.60
73121;DHT22;61307;49.628;-1.624;2023-11-22T02:46:42;18.40;48.60
73121;DHT22;61307;49.628;-1.624;2023-11-22T02:49:09;18.40;48.60
73121;DHT22;61307;49.628;-1.624;2023-11-22T02:51:36;18.40;48.60
73121;DHT22;61307;49.628;-1.624;2023-11-22T02:54:03;18.40;48.60
73121;DHT22;61307;49.628;-1.624;2023-11-22T02:56:31;18.40;48.70
73121;DHT22;61307;49.628;-1.624;2023-11-22T02:58:59;18.40;48.60
73121;DHT22;61307;49.628;-1.624;2023-11-22T03:01:26;18.40;48.60
73121;DHT22;61307;49.628;-1.624;2023-11-22T03:03:53;18.40;48.60
73121;DHT22;61307;49.628;-1.624;2023-11-22T03:06:19;18.40;48.60
73121;DHT22;61307;49.628;-1.624;2023-11-22T03:08:46;18.40;48.60
73121;DHT22;61307;49.628;-1.624;2023-11-22T03:11:14;18.40;48.70
73121;DHT22;61307;49.628;-1.624;2023-11-22T03:13:41;18.40;48.70
73121;DHT22;61307;49.628;-1.624;2023-11-22T03:16:10;18.40;48.70
73121;DHT22;61307;49.628;-1.624;2023-11-22T03:18:37;18.40;48.70
73121;DHT22;61307;49.628;-1.624;2023-11-22T03:21:05;18.40;48.70
73121;DHT22;61307;49.628;-1.624;2023-11-22T03:23:31;18.40;48.60
73121;DHT22;61307;49.628;-1.624;2023-11-22T03:25:58;18.30;48.60
73121;DHT22;61307;49.628;-1.624;2023-11-22T03:28:25;18.30;49.20
73121;DHT22;61307;49.628;-1.624;2023-11-22T03:30:52;18.30;48.60
73121;DHT22;61307;49.628;-1.624;2023-11-22T03:33:20;18.30;48.60
73121;DHT22;61307;49.628;-1.624;2023-11-22T03:35:47;18.30;48.60
73121;DHT22;61307;49.628;-1.624;2023-11-22T03:38:13;18.30;48.60
73121;DHT22;61307;49.628;-1.624;2023-11-22T03:40:40;18.30;48.60
73121;DHT22;61307;49.628;-1.624;2023-11-22T03:43:07;18.30;48.60
73121;DHT22;61307;49.628;-1.624;2023-11-22T03:45:35;18.30;48.60
73121;DHT22;61307;49.628;-1.624;2023-11-22T03:48:02;18.30;48.60
73121;DHT22;61307;49.628;-1.624;2023-11-22T03:50:30;18.30;48.60
73121;DHT22;61307;49.628;-1.624;2023-11-22T03:52:57;18.30;48.70
73121;DHT22;61307;49.628;-1.624;2023-11-22T03:55:24;18.30;48.60
73121;DHT22;61307;49.628;-1.624;2023-11-22T03:57:51;18.30;48.60
73121;DHT22;61307;49.628;-1.624;2023-11-22T04:00:18;18.30;48.70
73121;DHT22;61307;49.628;-1.624;2023-11-22T04:02:46;18.30;48.70
73121;DHT22;61307;49.628;-1.624;2023-11-22T04:05:13;18.30;48.70
73121;DHT22;61307;49.628;-1.624;2023-11-22T04:07:42;18.30;48.70
73121;DHT22;61307;49.628;-1.624;2023-11-22T04:10:09;18.30;48.70
73121;DHT22;61307;49.628;-1.624;2023-11-22T04:12:36;18.20;48.70
73121;DHT22;61307;49.628;-1.624;2023-11-22T04:15:04;18.30;48.70
73121;DHT22;61307;49.628;-1.624;2023-11-22T04:17:34;18.30;48.80
73121;DHT22;61307;49.628;-1.624;2023-11-22T04:20:03;18.30;48.80
73121;DHT22;61307;49.628;-1.624;2023-11-22T04:22:34;18.30;48.80
73121;DHT22;61307;49.628;-1.624;2023-11-22T04:25:02;18.30;48.70
73121;DHT22;61307;49.628;-1.624;2023-11-22T04:27:30;18.30;48.70
73121;DHT22;61307;49.628;-1.624;2023-11-22T04:29:56;18.20;48.60
73121;DHT22;61307;49.628;-1.624;2023-11-22T04:32:23;18.20;49.40
73121;DHT22;61307;49.628;-1.624;2023-11-22T04:34:50;18.20;48.70
73121;DHT22;61307;49.628;-1.624;2023-11-22T04:37:17;18.20;48.60
73121;DHT22;61307;49.628;-1.624;2023-11-22T04:39:44;18.20;48.70
73121;DHT22;61307;49.628;-1.624;2023-11-22T04:42:16;18.20;48.70
73121;DHT22;61307;49.628;-1.624;2023-11-22T04:44:43;18.20;48.70
73121;DHT22;61307;49.628;-1.624;2023-11-22T04:47:09;18.20;48.60
73121;DHT22;61307;49.628;-1.624;2023-11-22T04:49:36;18.20;48.60
73121;DHT22;61307;49.628;-1.624;2023-11-22T04:52:04;18.20;48.60
73121;DHT22;61307;49.628;-1.624;2023-11-22T04:54:31;18.20;49.30
73121;DHT22;61307;49.628;-1.624;2023-11-22T04:56:58;18.20;48.60
73121;DHT22;61307;49.628;-1.624;2023-11-22T04:59:26;18.20;48.60
73121;DHT22;61307;49.628;-1.624;2023-11-22T05:01:53;18.20;48.60
73121;DHT22;61307;49.628;-1.624;2023-11-22T05:04:20;18.20;48.60
73121;DHT22;61307;49.628;-1.624;2023-11-22T05:06:47;18.20;48.60
73121;DHT22;61307;49.628;-1.624;2023-11-22T05:09:13;18.20;48.60
73121;DHT22;61307;49.628;-1.624;2023-11-22T05:11:41;18.20;48.60
73121;DHT22;61307;49.628;-1.624;2023-11-22T05:14:08;18.20;48.70
73121;DHT22;61307;49.628;-1.624;2023-11-22T05:16:36;18.20;48.60
73121;DHT22;61307;49.628;-1.624;2023-11-22T05:19:03;18.10;48.50
73121;DHT22;61307;49.628;-1.624;2023-11-22T05:21:30;18.20;48.60
73121;DHT22;61307;49.628;-1.624;2023-11-22T05:23:58;18.10;48.60
73121;DHT22;61307;49.628;-1.624;2023-11-22T05:26:25;18.20;48.60
73121;DHT22;61307;49.628;-1.624;2023-11-22T05:28:52;18.10;48.60
73121;DHT22;61307;49.628;-1.624;2023-11-22T05:31:20;18.20;48.60
73121;DHT22;61307;49.628;-1.624;2023-11-22T05:33:48;18.10;48.50
73121;DHT22;61307;49.628;-1.624;2023-11-22T05:36:15;18.10;48.60
73121;DHT22;61307;49.628;-1.624;2023-11-22T05:38:42;18.10;48.70
73121;DHT22;61307;49.628;-1.624;2023-11-22T05:41:09;18.10;48.70
73121;DHT22;61307;49.628;-1.624;2023-11-22T05:43:36;18.20;48.90
73121;DHT22;61307;49.628;-1.624;2023-11-22T05:46:03;18.20;48.90
73121;DHT22;61307;49.628;-1.624;2023-11-22T05:48:30;18.20;48.80
73121;DHT22;61307;49.628;-1.624;2023-11-22T05:50:58;18.30;48.80
73121;DHT22;61307;49.628;-1.624;2023-11-22T05:53:25;18.40;48.80
73121;DHT22;61307;49.628;-1.624;2023-11-22T05:55:52;18.40;48.60
73121;DHT22;61307;49.628;-1.624;2023-11-22T05:58:19;18.50;48.50
73121;DHT22;61307;49.628;-1.624;2023-11-22T06:00:47;18.60;48.50
73121;DHT22;61307;49.628;-1.624;2023-11-22T06:03:14;18.60;48.30
73121;DHT22;61307;49.628;-1.624;2023-11-22T06:05:41;18.70;48.20
73121;DHT22;61307;49.628;-1.624;2023-11-22T06:08:09;18.80;48.20
73121;DHT22;61307;49.628;-1.624;2023-11-22T06:10:36;18.80;48.00
73121;DHT22;61307;49.628;-1.624;2023-11-22T06:13:03;18.90;47.90
73121;DHT22;61307;49.628;-1.624;2023-11-22T06:15:30;18.90;47.70
73121;DHT22;61307;49.628;-1.624;2023-11-22T06:17:57;19.00;47.70
73121;DHT22;61307;49.628;-1.624;2023-11-22T06:20:24;19.00;47.60
73121;DHT22;61307;49.628;-1.624;2023-11-22T06:22:52;19.10;47.50
73121;DHT22;61307;49.628;-1.624;2023-11-22T06:25:20;19.10;47.40
73121;DHT22;61307;49.628;-1.624;2023-11-22T06:27:47;19.20;47.40
73121;DHT22;61307;49.628;-1.624;2023-11-22T06:30:14;19.20;47.40
73121;DHT22;61307;49.628;-1.624;2023-11-22T06:32:41;19.20;47.20
73121;DHT22;61307;49.628;-1.624;2023-11-22T06:35:09;19.30;47.20
73121;DHT22;61307;49.628;-1.624;2023-11-22T06:37:37;19.30;47.20
73121;DHT22;61307;49.628;-1.624;2023-11-22T06:40:04;19.30;47.10
73121;DHT22;61307;49.628;-1.624;2023-11-22T06:42:33;19.30;46.90
73121;DHT22;61307;49.628;-1.624;2023-11-22T06:45:00;19.30;46.80
73121;DHT22;61307;49.628;-1.624;2023-11-22T06:47:27;19.40;46.80
73121;DHT22;61307;49.628;-1.624;2023-11-22T06:49:54;19.40;46.70
73121;DHT22;61307;49.628;-1.624;2023-11-22T06:52:21;19.40;46.70
73121;DHT22;61307;49.628;-1.624;2023-11-22T06:54:48;19.50;46.70
73121;DHT22;61307;49.628;-1.624;2023-11-22T06:57:15;19.50;46.60
73121;DHT22;61307;49.628;-1.624;2023-11-22T06:59:43;19.50;46.60
73121;DHT22;61307;49.628;-1.624;2023-11-22T07:02:10;19.50;46.40
73121;DHT22;61307;49.628;-1.624;2023-11-22T07:04:36;19.50;46.50
73121;DHT22;61307;49.628;-1.624;2023-11-22T07:07:05;19.50;46.30
73121;DHT22;61307;49.628;-1.624;2023-11-22T07:09:34;19.50;46.30
73121;DHT22;61307;49.628;-1.624;2023-11-22T07:12:02;19.50;46.20
73121;DHT22;61307;49.628;-1.624;2023-11-22T07:14:31;19.60;46.20
73121;DHT22;61307;49.628;-1.624;2023-11-22T07:17:00;19.60;46.00
73121;DHT22;61307;49.628;-1.624;2023-11-22T07:19:27;19.60;45.90
73121;DHT22;61307;49.628;-1.624;2023-11-22T07:21:54;19.60;45.90
73121;DHT22;61307;49.628;-1.624;2023-11-22T07:24:21;19.60;45.90
73121;DHT22;61307;49.628;-1.624;2023-11-22T07:26:49;19.60;45.80
73121;DHT22;61307;49.628;-1.624;2023-11-22T07:29:16;19.60;45.90
73121;DHT22;61307;49.628;-1.624;2023-11-22T07:31:43;19.70;46.00
73121;DHT22;61307;49.628;-1.624;2023-11-22T07:34:12;19.70;45.90
73121;DHT22;61307;49.628;-1.624;2023-11-22T07:36:39;19.70;45.90
73121;DHT22;61307;49.628;-1.624;2023-11-22T07:39:06;19.70;45.90
73121;DHT22;61307;49.628;-1.624;2023-11-22T07:41:33;19.70;46.00
73121;DHT22;61307;49.628;-1.624;2023-11-22T07:44:00;19.70;46.00
73121;DHT22;61307;49.628;-1.624;2023-11-22T07:46:27;19.70;46.00
73121;DHT22;61307;49.628;-1.624;2023-11-22T07:48:54;19.70;45.90
73121;DHT22;61307;49.628;-1.624;2023-11-22T07:51:22;19.80;46.00
73121;DHT22;61307;49.628;-1.624;2023-11-22T07:53:51;19.70;45.90
73121;DHT22;61307;49.628;-1.624;2023-11-22T07:56:21;19.80;46.00
73121;DHT22;61307;49.628;-1.624;2023-11-22T07:58:50;19.70;45.90
73121;DHT22;61307;49.628;-1.624;2023-11-22T08:01:18;19.70;45.80
73121;DHT22;61307;49.628;-1.624;2023-11-22T08:03:48;19.70;45.90
73121;DHT22;61307;49.628;-1.624;2023-11-22T08:06:17;19.70;45.90
73121;DHT22;61307;49.628;-1.624;2023-11-22T08:08:45;19.70;45.80
73121;DHT22;61307;49.628;-1.624;2023-11-22T08:11:15;19.70;45.80
73121;DHT22;61307;49.628;-1.624;2023-11-22T08:13:53;19.70;45.80
73121;DHT22;61307;49.628;-1.624;2023-11-22T08:16:28;19.70;45.90
73121;DHT22;61307;49.628;-1.624;2023-11-22T08:18:58;19.70;45.90
73121;DHT22;61307;49.628;-1.624;2023-11-22T08:21:26;19.70;45.90
73121;DHT22;61307;49.628;-1.624;2023-11-22T08:23:57;19.80;46.00
73121;DHT22;61307;49.628;-1.624;2023-11-22T08:26:26;19.80;46.00
73121;DHT22;61307;49.628;-1.624;2023-11-22T08:28:54;19.80;46.00
73121;DHT22;61307;49.628;-1.624;2023-11-22T08:31:22;19.90;46.20
73121;DHT22;61307;49.628;-1.624;2023-11-22T08:33:49;19.90;46.20
73121;DHT22;61307;49.628;-1.624;2023-11-22T08:36:16;20.00;46.40
73121;DHT22;61307;49.628;-1.624;2023-11-22T08:38:44;20.00;46.30
73121;DHT22;61307;49.628;-1.624;2023-11-22T08:41:17;20.00;46.40
73121;DHT22;61307;49.628;-1.624;2023-11-22T08:43:53;20.10;46.50
73121;DHT22;61307;49.628;-1.624;2023-11-22T08:46:23;20.10;46.40
73121;DHT22;61307;49.628;-1.624;2023-11-22T08:48:50;20.20;46.30
73121;DHT22;61307;49.628;-1.624;2023-11-22T08:51:17;20.20;46.40
73121;DHT22;61307;49.628;-1.624;2023-11-22T08:53:48;20.30;46.50
73121;DHT22;61307;49.628;-1.624;2023-11-22T08:56:19;20.30;46.50
73121;DHT22;61307;49.628;-1.624;2023-11-22T08:58:46;20.40;46.60
73121;DHT22;61307;49.628;-1.624;2023-11-22T09:01:13;20.40;46.50
73121;DHT22;61307;49.628;-1.624;2023-11-22T09:03:41;20.50;46.60
73121;DHT22;61307;49.628;-1.624;2023-11-22T09:06:09;20.50;46.60
73121;DHT22;61307;49.628;-1.624;2023-11-22T09:08:36;20.50;46.60
73121;DHT22;61307;49.628;-1.624;2023-11-22T09:11:04;20.50;46.60
73121;DHT22;61307;49.628;-1.624;2023-11-22T09:13:33;20.60;46.60
73121;DHT22;61307;49.628;-1.624;2023-11-22T09:16:00;20.60;46.40
73121;DHT22;61307;49.628;-1.624;2023-11-22T09:18:30;20.50;45.90
73121;DHT22;61307;49.628;-1.624;2023-11-22T09:20:58;20.50;46.20
73121;DHT22;61307;49.628;-1.624;2023-11-22T09:23:25;20.50;46.10
73121;DHT22;61307;49.628;-1.624;2023-11-22T09:25:53;20.50;46.30
73121;DHT22;61307;49.628;-1.624;2023-11-22T09:28:20;20.50;46.50
73121;DHT22;61307;49.628;-1.624;2023-11-22T09:30:48;20.60;46.70
73121;DHT22;61307;49.628;-1.624;2023-11-22T09:33:19;20.60;46.70
73121;DHT22;61307;49.628;-1.624;2023-11-22T09:35:47;20.60;46.50
73121;DHT22;61307;49.628;-1.624;2023-11-22T09:38:15;20.70;46.60
73121;DHT22;61307;49.628;-1.624;2023-11-22T09:40:46;20.70;46.40
73121;DHT22;61307;49.628;-1.624;2023-11-22T09:43:15;20.80;46.40
73121;DHT22;61307;49.628;-1.624;2023-11-22T09:45:43;20.80;46.20
73121;DHT22;61307;49.628;-1.624;2023-11-22T09:48:15;20.80;46.10
73121;DHT22;61307;49.628;-1.624;2023-11-22T09:50:57;20.90;46.00
73121;DHT22;61307;49.628;-1.624;2023-11-22T09:53:33;20.90;45.80
73121;DHT22;61307;49.628;-1.624;2023-11-22T09:56:04;20.90;45.60
73121;DHT22;61307;49.628;-1.624;2023-11-22T09:58:35;20.90;45.50
73121;DHT22;61307;49.628;-1.624;2023-11-22T10:01:31;20.90;45.60
73121;DHT22;61307;49.628;-1.624;2023-11-22T10:03:58;21.00;45.60
73121;DHT22;61307;49.628;-1.624;2023-11-22T10:06:27;21.00;45.60
73121;DHT22;61307;49.628;-1.624;2023-11-22T10:08:59;21.00;45.60
73121;DHT22;61307;49.628;-1.624;2023-11-22T10:11:41;21.00;45.60
73121;DHT22;61307;49.628;-1.624;2023-11-22T10:14:27;21.00;45.60
73121;DHT22;61307;49.628;-1.624;2023-11-22T10:17:01;21.00;45.60
73121;DHT22;61307;49.628;-1.624;2023-11-22T10:20:02;21.10;45.30
73121;DHT22;61307;49.628;-1.624;2023-11-22T10:22:51;21.10;45.20
73121;DHT22;61307;49.628;-1.624;2023-11-22T10:25:21;21.10;45.20
73121;DHT22;61307;49.628;-1.624;2023-11-22T10:28:02;21.10;45.40
73121;DHT22;61307;49.628;-1.624;2023-11-22T10:30:35;21.10;45.20
73121;DHT22;61307;49.628;-1.624;2023-11-22T10:33:06;21.10;45.20
73121;DHT22;61307;49.628;-1.624;2023-11-22T10:35:42;21.10;45.20
73121;DHT22;61307;49.628;-1.624;2023-11-22T10:38:15;21.10;45.00
73121;DHT22;61307;49.628;-1.624;2023-11-22T10:40:47;21.10;45.00
73121;DHT22;61307;49.628;-1.624;2023-11-22T10:46:28;21.10;44.80
73121;DHT22;61307;49.628;-1.624;2023-11-22T10:48:55;21.00;44.80
73121;DHT22;61307;49.628;-1.624;2023-11-22T10:51:34;21.00;44.80
73121;DHT22;61307;49.628;-1.624;2023-11-22T10:54:07;21.00;44.80
73121;DHT22;61307;49.628;-1.624;2023-11-22T10:56:46;21.00;44.80
73121;DHT22;61307;49.628;-1.624;2023-11-22T10:59:22;21.00;44.60
73121;DHT22;61307;49.628;-1.624;2023-11-22T11:01:57;20.90;44.70
73121;DHT22;61307;49.628;-1.624;2023-11-22T11:04:33;20.90;44.60
73121;DHT22;61307;49.628;-1.624;2023-11-22T11:07:06;20.90;44.50
73121;DHT22;61307;49.628;-1.624;2023-11-22T11:09:41;20.90;44.60
73121;DHT22;61307;49.628;-1.624;2023-11-22T11:12:14;20.90;44.60
73121;DHT22;61307;49.628;-1.624;2023-11-22T11:14:52;20.90;44.50
73121;DHT22;61307;49.628;-1.624;2023-11-22T11:17:30;20.80;44.50
73121;DHT22;61307;49.628;-1.624;2023-11-22T11:19:59;20.80;44.50
73121;DHT22;61307;49.628;-1.624;2023-11-22T11:22:48;20.80;44.50
73121;DHT22;61307;49.628;-1.624;2023-11-22T11:25:18;20.80;44.40
73121;DHT22;61307;49.628;-1.624;2023-11-22T11:27:56;20.80;44.40
73121;DHT22;61307;49.628;-1.624;2023-11-22T11:30:51;20.80;44.30
73121;DHT22;61307;49.628;-1.624;2023-11-22T11:33:26;20.80;44.30
73121;DHT22;61307;49.628;-1.624;2023-11-22T11:36:00;20.80;44.40
73121;DHT22;61307;49.628;-1.624;2023-11-22T11:38:37;20.80;44.40
73121;DHT22;61307;49.628;-1.624;2023-11-22T11:41:09;20.80;44.30
73121;DHT22;61307;49.628;-1.624;2023-11-22T11:43:47;20.80;44.40
73121;DHT22;61307;49.628;-1.624;2023-11-22T11:46:16;20.80;44.40
73121;DHT22;61307;49.628;-1.624;2023-11-22T11:48:43;20.80;44.40
73121;DHT22;61307;49.628;-1.624;2023-11-22T11:51:14;20.80;44.40
73121;DHT22;61307;49.628;-1.624;2023-11-22T11:53:44;20.80;44.50
73121;DHT22;61307;49.628;-1.624;2023-11-22T11:56:15;20.70;44.30
73121;DHT22;61307;49.628;-1.624;2023-11-22T11:58:43;20.70;44.30
73121;DHT22;61307;49.628;-1.624;2023-11-22T12:01:12;20.70;44.30
73121;DHT22;61307;49.628;-1.624;2023-11-22T12:03:39;20.70;44.30
73121;DHT22;61307;49.628;-1.624;2023-11-22T12:06:06;20.70;44.30
73121;DHT22;61307;49.628;-1.624;2023-11-22T12:08:33;20.70;44.30
73121;DHT22;61307;49.628;-1.624;2023-11-22T12:11:03;20.70;44.30
73121;DHT22;61307;49.628;-1.624;2023-11-22T12:13:34;20.70;44.30
73121;DHT22;61307;49.628;-1.624;2023-11-22T12:16:05;20.70;44.20
73121;DHT22;61307;49.628;-1.624;2023-11-22T12:18:40;20.70;44.30
73121;DHT22;61307;49.628;-1.624;2023-11-22T12:21:11;20.70;44.30
73121;DHT22;61307;49.628;-1.624;2023-11-22T12:23:39;20.70;44.30
73121;DHT22;61307;49.628;-1.624;2023-11-22T12:26:12;20.70;44.30
73121;DHT22;61307;49.628;-1.624;2023-11-22T12:28:40;20.70;44.20
73121;DHT22;61307;49.628;-1.624;2023-11-22T12:31:08;20.70;44.20
73121;DHT22;61307;49.628;-1.624;2023-11-22T12:33:35;20.70;44.30
73121;DHT22;61307;49.628;-1.624;2023-11-22T12:36:03;20.70;44.20
73121;DHT22;61307;49.628;-1.624;2023-11-22T12:38:31;20.70;44.20
73121;DHT22;61307;49.628;-1.624;2023-11-22T12:40:59;20.70;44.10
73121;DHT22;61307;49.628;-1.624;2023-11-22T12:43:30;20.70;44.20
73121;DHT22;61307;49.628;-1.624;2023-11-22T12:46:02;20.70;44.10
73121;DHT22;61307;49.628;-1.624;2023-11-22T12:48:29;20.70;44.20
73121;DHT22;61307;49.628;-1.624;2023-11-22T12:50:58;20.70;44.20
73121;DHT22;61307;49.628;-1.624;2023-11-22T12:53:26;20.70;44.30
73121;DHT22;61307;49.628;-1.624;2023-11-22T12:55:54;20.60;44.10
73121;DHT22;61307;49.628;-1.624;2023-11-22T12:58:23;20.60;44.30
73121;DHT22;61307;49.628;-1.624;2023-11-22T13:00:53;20.60;44.30
73121;DHT22;61307;49.628;-1.624;2023-11-22T13:03:24;20.60;44.30
73121;DHT22;61307;49.628;-1.624;2023-11-22T13:05:51;20.60;44.40
73121;DHT22;61307;49.628;-1.624;2023-11-22T13:08:24;20.60;44.40
73121;DHT22;61307;49.628;-1.624;2023-11-22T13:10:55;20.60;44.50
73121;DHT22;61307;49.628;-1.624;2023-11-22T13:13:23;20.60;44.60
73121;DHT22;61307;49.628;-1.624;2023-11-22T13:15:52;20.60;44.60
73121;DHT22;61307;49.628;-1.624;2023-11-22T13:18:20;20.60;44.70
73121;DHT22;61307;49.628;-1.624;2023-11-22T13:20:47;20.70;44.80
73121;DHT22;61307;49.628;-1.624;2023-11-22T13:23:14;20.70;44.80
73121;DHT22;61307;49.628;-1.624;2023-11-22T13:25:42;20.70;44.80
73121;DHT22;61307;49.628;-1.624;2023-11-22T13:28:12;20.70;44.80
73121;DHT22;61307;49.628;-1.624;2023-11-22T13:30:39;20.80;45.10
73121;DHT22;61307;49.628;-1.624;2023-11-22T13:33:07;20.80;45.00
73121;DHT22;61307;49.628;-1.624;2023-11-22T13:35:34;20.80;45.00
73121;DHT22;61307;49.628;-1.624;2023-11-22T13:38:04;20.80;45.10
73121;DHT22;61307;49.628;-1.624;2023-11-22T13:40:37;20.80;45.10
73121;DHT22;61307;49.628;-1.624;2023-11-22T13:43:05;20.80;45.30
73121;DHT22;61307;49.628;-1.624;2023-11-22T13:45:35;20.80;45.20
73121;DHT22;61307;49.628;-1.624;2023-11-22T13:48:04;20.70;45.20
73121;DHT22;61307;49.628;-1.624;2023-11-22T13:50:33;20.70;45.20
73121;DHT22;61307;49.628;-1.624;2023-11-22T13:53:01;20.70;45.10
73121;DHT22;61307;49.628;-1.624;2023-11-22T13:55:29;20.70;45.30
73121;DHT22;61307;49.628;-1.624;2023-11-22T13:57:58;20.70;45.40
73121;DHT22;61307;49.628;-1.624;2023-11-22T14:00:26;20.70;45.40
73121;DHT22;61307;49.628;-1.624;2023-11-22T14:02:58;20.70;45.40
73121;DHT22;61307;49.628;-1.624;2023-11-22T14:05:33;20.70;45.40
73121;DHT22;61307;49.628;-1.624;2023-11-22T14:08:02;20.70;45.60
73121;DHT22;61307;49.628;-1.624;2023-11-22T14:10:29;20.70;45.50
73121;DHT22;61307;49.628;-1.624;2023-11-22T14:12:56;20.70;45.40
73121;DHT22;61307;49.628;-1.624;2023-11-22T14:15:26;20.80;45.50
73121;DHT22;61307;49.628;-1.624;2023-11-22T14:17:53;20.80;45.40
73121;DHT22;61307;49.628;-1.624;2023-11-22T14:20:20;20.80;45.40
73121;DHT22;61307;49.628;-1.624;2023-11-22T14:22:49;20.80;45.40
73121;DHT22;61307;49.628;-1.624;2023-11-22T14:25:16;20.90;45.50
73121;DHT22;61307;49.628;-1.624;2023-11-22T14:27:44;20.90;45.40
73121;DHT22;61307;49.628;-1.624;2023-11-22T14:30:13;20.90;45.40
73121;DHT22;61307;49.628;-1.624;2023-11-22T14:32:42;21.00;45.50
73121;DHT22;61307;49.628;-1.624;2023-11-22T14:35:10;21.00;45.40
73121;DHT22;61307;49.628;-1.624;2023-11-22T14:37:40;21.00;45.50
73121;DHT22;61307;49.628;-1.624;2023-11-22T14:40:09;21.00;45.40
73121;DHT22;61307;49.628;-1.624;2023-11-22T14:42:42;21.10;45.50
73121;DHT22;61307;49.628;-1.624;2023-11-22T14:45:13;21.10;45.50
73121;DHT22;61307;49.628;-1.624;2023-11-22T14:47:48;21.10;45.50
73121;DHT22;61307;49.628;-1.624;2023-11-22T14:50:19;21.20;45.50
73121;DHT22;61307;49.628;-1.624;2023-11-22T14:53:07;21.20;46.00
73121;DHT22;61307;49.628;-1.624;2023-11-22T14:55:37;21.20;45.30
73121;DHT22;61307;49.628;-1.624;2023-11-22T14:58:07;21.20;45.40
73121;DHT22;61307;49.628;-1.624;2023-11-22T15:00:34;21.30;45.40
73121;DHT22;61307;49.628;-1.624;2023-11-22T15:03:03;21.30;45.40
73121;DHT22;61307;49.628;-1.624;2023-11-22T15:05:31;21.30;45.30
73121;DHT22;61307;49.628;-1.624;2023-11-22T15:08:09;21.30;45.40
73121;DHT22;61307;49.628;-1.624;2023-11-22T15:10:37;21.30;45.40
73121;DHT22;61307;49.628;-1.624;2023-11-22T15:13:04;21.30;45.40
73121;DHT22;61307;49.628;-1.624;2023-11-22T15:15:31;21.30;45.50
73121;DHT22;61307;49.628;-1.624;2023-11-22T15:18:00;21.30;45.50
73121;DHT22;61307;49.628;-1.624;2023-11-22T15:20:26;21.40;45.70
73121;DHT22;61307;49.628;-1.624;2023-11-22T15:22:57;21.40;45.70
73121;DHT22;61307;49.628;-1.624;2023-11-22T15:25:25;21.40;45.60
73121;DHT22;61307;49.628;-1.624;2023-11-22T15:27:53;21.40;45.60
73121;DHT22;61307;49.628;-1.624;2023-11-22T15:30:21;21.40;45.60